Pagrindinis puslapis
METAR-TAF:

METAR-TAF

Oro uostai :

Monterija, Kolumbija

platuma: 08-49N, ilguma: 075-51W, Aukštis: 20 m

Dabartinis oras

Ataskaita buvo paskelbta 39 minutes, ne 23:00 UTC
Vėjas 5 kt iš Šiaurės/Šiaurės Vakarų
Temperatūra 27°C
Drėgmė 79%
Slėgis 1009 hPa
Matomumas 10 km arba daugiau
Mažai debesys ne aukštis 1800 ft

METAR: SKMR 222300Z 34005KT 9999 FEW018 27/23 A2979

Laikas: 18:39 (23:39 UTC)


TAF: trūkstamas

Orai ataskaitas ir orų prognozės (METAR, TAF).

turimą stotys yra geltonos ir raudonos taškus žemėlapyje.

Perkelti pele per norėdami pamatyti stoties vardą.

Tada spustelėkite, norėdami matyti oro stebėjimo ir prognozės.

Norėdami pakeisti žemėlapį: spustelėkite ant žalios mygtukų su juodo kryžiaus žemyn,; žalią mygtuką su brūkšneliu, jei norite nutolinti; arba žalių rodyklių gretimoms žemėlapius.


METAR-TAF: